Time;durP1;ratioP1;P1;durP2;ratioP2;P2;SDS_P1;SDS_P2;PMS_P1;PMS_P2;Temp;Humidity;BMP_temperature;BMP_pressure;BME280_temperature;BME280_humidity;BME280_pressure;Samples;Min_cycle;Max_cycle;Signal;HPM_P1;HPM_P2
2021/12/13 00:02:32;;;;;;;4.93;4.43;;;;;;;4.59;100.00;97300.84;5010076;28;20065;-48
2021/12/13 00:05:10;;;;;;;6.35;4.82;;;;;;;4.70;100.00;97297.59;5022367;28;20038;-48
2021/12/13 00:07:42;;;;;;;7.05;4.90;;;;;;;4.72;100.00;97293.16;5019398;28;20080;-51
2021/12/13 00:10:17;;;;;;;5.03;4.53;;;;;;;4.82;100.00;97299.53;5025847;28;20085;-52
2021/12/13 00:12:49;;;;;;;5.57;4.90;;;;;;;4.84;100.00;97299.41;5023525;28;20065;-47
2021/12/13 00:15:24;;;;;;;6.07;5.18;;;;;;;4.73;100.00;97294.81;5024599;28;20066;-46
2021/12/13 00:17:54;;;;;;;7.15;5.28;;;;;;;4.84;100.00;97305.50;5019460;28;20104;-48
2021/12/13 00:20:29;;;;;;;6.15;5.47;;;;;;;4.91;100.00;97306.81;5020878;28;20073;-50
2021/12/13 00:23:01;;;;;;;5.93;5.32;;;;;;;4.86;100.00;97301.03;5024307;28;20075;-52
2021/12/13 00:25:31;;;;;;;5.43;4.68;;;;;;;4.83;100.00;97301.19;5022858;28;20111;-50
2021/12/13 00:28:01;;;;;;;5.22;4.72;;;;;;;4.80;100.00;97301.38;5023526;28;20086;-48
2021/12/13 00:30:31;;;;;;;;;;;;;;;4.74;100.00;97299.09;5019840;28;20527;-49
2021/12/13 00:33:08;;;;;;;5.45;4.90;;;;;;;4.92;100.00;97305.03;5022485;28;20465;-50
2021/12/13 00:35:44;;;;;;;6.75;5.05;;;;;;;4.86;100.00;97306.25;5019163;28;20069;-49
2021/12/13 00:38:13;;;;;;;6.35;5.43;;;;;;;5.21;100.00;97308.56;5017968;28;20380;-46
2021/12/13 00:40:44;;;;;;;7.85;5.30;;;;;;;5.31;100.00;97301.88;5019730;28;20510;-49
2021/12/13 00:43:16;;;;;;;7.25;5.95;;;;;;;5.40;100.00;97306.56;5016249;28;20092;-46
2021/12/13 00:45:50;;;;;;;6.78;5.50;;;;;;;5.16;100.00;97305.38;5022325;28;20508;-50
2021/12/13 00:48:20;;;;;;;6.70;5.50;;;;;;;5.17;100.00;97310.53;5016010;28;20065;-46
2021/12/13 00:50:52;;;;;;;6.50;5.47;;;;;;;5.27;100.00;97307.38;5024717;28;20582;-46
2021/12/13 00:53:22;;;;;;;6.82;5.75;;;;;;;5.53;100.00;97305.81;5021691;28;20057;-45
2021/12/13 00:55:51;;;;;;;6.30;5.32;;;;;;;5.16;100.00;97311.47;5022478;28;20068;-46
2021/12/13 00:58:21;;;;;;;5.55;5.00;;;;;;;5.16;100.00;97313.22;5025393;28;20076;-47
2021/12/13 01:00:57;;;;;;;6.63;5.57;;;;;;;5.23;100.00;97314.56;5021053;28;21374;-49
2021/12/13 01:03:33;;;;;;;6.00;5.38;;;;;;;5.35;100.00;97315.59;5018597;28;20065;-47
2021/12/13 01:06:49;;;;;;;5.55;4.95;;;;;;;5.35;100.00;97318.22;5017943;28;20089;-47
2021/12/13 01:09:59;;;;;;;5.65;5.10;;;;;;;5.47;100.00;97320.97;5018112;28;20072;-53
2021/12/13 01:12:28;;;;;;;5.35;4.70;;;;;;;5.14;100.00;97317.72;5021170;28;20083;-46
2021/12/13 01:15:04;;;;;;;5.72;5.20;;;;;;;5.47;100.00;97318.34;5019198;28;20081;-50
2021/12/13 01:17:46;;;;;;;5.53;4.80;;;;;;;5.18;100.00;97320.06;5022581;28;20148;-51
2021/12/13 01:20:24;;;;;;;4.68;4.20;;;;;;;4.97;100.00;97327.38;5019575;28;20073;-49
2021/12/13 01:22:59;;;;;;;6.18;5.05;;;;;;;5.10;100.00;97318.84;5024230;28;20042;-48
2021/12/13 01:25:46;;;;;;;5.32;4.82;;;;;;;5.20;100.00;97326.03;5014850;28;20089;-45
2021/12/13 01:28:22;;;;;;;4.72;4.13;;;;;;;4.87;100.00;97321.00;5021972;28;20107;-51
2021/12/13 01:30:56;;;;;;;7.28;4.10;;;;;;;5.07;100.00;97324.25;5020001;28;21503;-49
2021/12/13 01:33:26;;;;;;;5.97;4.95;;;;;;;5.32;100.00;97327.09;5012989;28;20062;-52
2021/12/13 01:35:58;;;;;;;4.80;4.07;;;;;;;4.79;100.00;97328.44;5022343;28;20076;-50
2021/12/13 01:38:34;;;;;;;4.38;3.97;;;;;;;4.90;100.00;97326.03;5020625;28;20783;-46
2021/12/13 01:41:08;;;;;;;5.88;3.95;;;;;;;5.08;100.00;97328.53;5022424;28;20072;-49
2021/12/13 01:43:39;;;;;;;4.22;3.83;;;;;;;5.06;100.00;97333.84;5014013;28;20093;-48
2021/12/13 01:46:07;;;;;;;4.22;3.83;;;;;;;5.12;100.00;97324.78;5022795;28;20089;-49
2021/12/13 01:48:38;;;;;;;4.93;4.43;;;;;;;5.02;100.00;97329.72;5024330;28;20491;-46
2021/12/13 01:51:11;;;;;;;4.65;4.20;;;;;;;5.17;100.00;97322.78;5020698;28;20469;-50
2021/12/13 01:53:43;;;;;;;5.03;4.13;;;;;;;4.92;100.00;97325.94;5021349;28;20049;-45
2021/12/13 01:56:36;;;;;;;4.18;3.78;;;;;;;4.82;100.00;97327.41;5019737;28;20072;-49
2021/12/13 01:59:16;;;;;;;3.80;3.50;;;;;;;4.87;100.00;97328.00;5020310;28;20487;-44
2021/12/13 02:01:45;;;;;;;5.10;3.65;;;;;;;5.13;100.00;97323.88;5022618;28;20061;-45
2021/12/13 02:04:15;;;;;;;4.00;3.70;;;;;;;5.09;100.00;97330.19;5024972;28;20072;-50
2021/12/13 02:06:46;;;;;;;5.18;3.88;;;;;;;4.99;100.00;97325.53;5020279;28;20112;-46
2021/12/13 02:09:19;;;;;;;4.47;4.03;;;;;;;4.92;100.00;97318.09;5019018;28;20652;-46
2021/12/13 02:11:53;;;;;;;3.92;3.53;;;;;;;4.70;100.00;97321.97;5022193;28;20065;-46
2021/12/13 02:14:27;;;;;;;3.95;3.50;;;;;;;4.91;100.00;97327.72;5017710;28;20468;-47
2021/12/13 02:16:59;;;;;;;4.10;3.75;;;;;;;5.05;100.00;97328.69;5016711;28;20682;-46
2021/12/13 02:19:43;;;;;;;3.67;3.25;;;;;;;5.13;100.00;97329.13;5024289;28;20073;-48
2021/12/13 02:22:40;;;;;;;3.83;3.42;;;;;;;4.92;100.00;97325.94;5022002;28;20081;-50
2021/12/13 02:25:15;;;;;;;3.70;3.30;;;;;;;4.93;100.00;97336.31;5021217;28;20562;-48
2021/12/13 02:27:48;;;;;;;4.07;3.67;;;;;;;4.75;100.00;97330.38;5026020;28;20148;-46
2021/12/13 02:30:21;;;;;;;4.55;3.85;;;;;;;5.07;100.00;97337.31;5022852;28;20073;-45
2021/12/13 02:32:49;;;;;;;3.97;3.58;;;;;;;4.76;100.00;97339.06;5027155;28;20081;-46
2021/12/13 02:35:21;;;;;;;4.20;3.67;;;;;;;4.93;100.00;97333.72;5025640;28;20140;-49
2021/12/13 02:37:50;;;;;;;3.97;3.65;;;;;;;5.02;100.00;97328.88;5023186;28;20061;-46
2021/12/13 02:40:22;;;;;;;4.03;3.63;;;;;;;4.85;100.00;97327.22;5020561;28;20077;-45
2021/12/13 02:42:51;;;;;;;3.33;3.03;;;;;;;4.71;100.00;97328.00;5026553;28;20401;-44
2021/12/13 02:45:25;;;;;;;3.63;3.33;;;;;;;4.80;100.00;97319.66;5023864;28;20074;-45
2021/12/13 02:48:01;;;;;;;3.60;3.30;;;;;;;4.87;100.00;97328.84;5027369;28;20057;-50
2021/12/13 02:50:38;;;;;;;5.00;3.50;;;;;;;4.89;100.00;97337.44;5022260;28;20065;-50
2021/12/13 02:53:08;;;;;;;4.78;3.30;;;;;;;5.02;100.00;97334.94;5022695;28;20079;-47
2021/12/13 02:55:36;;;;;;;3.65;3.30;;;;;;;5.04;100.00;97333.09;5025597;28;20073;-44
2021/12/13 02:58:09;;;;;;;3.22;2.92;;;;;;;4.97;100.00;97329.16;5025549;28;20174;-48
2021/12/13 03:00:42;;;;;;;3.60;3.30;;;;;;;4.90;100.00;97323.44;5019634;28;20077;-50
2021/12/13 03:03:14;;;;;;;3.20;3.00;;;;;;;4.92;100.00;97333.78;5026065;28;20721;-47
2021/12/13 03:05:45;;;;;;;3.72;3.42;;;;;;;5.12;100.00;97315.19;5022759;28;20061;-47
2021/12/13 03:08:20;;;;;;;4.70;3.63;;;;;;;4.97;100.00;97321.31;5022054;28;20065;-47
2021/12/13 03:10:52;;;;;;;3.35;3.05;;;;;;;4.90;100.00;97322.59;5027378;28;20065;-43
2021/12/13 03:13:21;;;;;;;3.30;3.00;;;;;;;4.83;100.00;97332.56;5026628;28;20080;-46
2021/12/13 03:15:58;;;;;;;3.35;3.05;;;;;;;4.89;100.00;97324.38;5022860;28;20335;-46
2021/12/13 03:18:37;;;;;;;3.25;2.95;;;;;;;4.95;100.00;97333.63;5023853;28;20077;-46
2021/12/13 03:21:46;;;;;;;3.47;3.17;;;;;;;4.84;100.00;97330.78;5025473;28;20064;-48
2021/12/13 03:24:38;;;;;;;3.50;3.20;;;;;;;5.14;100.00;97338.63;4976369;28;20069;-45
2021/12/13 03:27:18;;;;;;;3.83;3.38;;;;;;;4.92;100.00;97337.25;5027666;28;20073;-50
2021/12/13 03:29:58;;;;;;;3.17;2.97;;;;;;;4.85;100.00;97330.72;5019965;28;20498;-47
2021/12/13 03:32:34;;;;;;;3.25;3.05;;;;;;;4.99;100.00;97329.91;5026657;28;20486;-47
2021/12/13 03:35:08;;;;;;;3.78;3.47;;;;;;;5.29;100.00;97329.03;5022793;28;20069;-48
2021/12/13 03:37:37;;;;;;;3.60;3.30;;;;;;;5.27;100.00;97331.75;5017079;28;20485;-49
2021/12/13 03:40:12;;;;;;;3.83;3.53;;;;;;;4.97;100.00;97326.53;5025454;28;20072;-45
2021/12/13 03:42:42;;;;;;;3.30;3.10;;;;;;;4.84;100.00;97329.00;5020933;28;20528;-49
2021/12/13 03:45:14;;;;;;;3.50;3.20;;;;;;;4.85;100.00;97327.22;5022476;28;20084;-46
2021/12/13 03:47:44;;;;;;;3.75;3.45;;;;;;;4.98;100.00;97326.44;5019328;28;20067;-46
2021/12/13 03:50:14;;;;;;;;;;;;;;;5.06;100.00;97323.41;5019502;28;20068;-46
2021/12/13 03:52:46;;;;;;;3.90;3.55;;;;;;;5.00;100.00;97335.03;5023372;28;19975;-49
2021/12/13 03:55:21;;;;;;;3.65;3.35;;;;;;;5.00;100.00;97324.59;5020778;28;20077;-49
2021/12/13 03:57:54;;;;;;;3.60;3.30;;;;;;;5.15;100.00;97335.06;5014132;28;20537;-47
2021/12/13 04:00:25;;;;;;;3.67;3.38;;;;;;;4.97;100.00;97334.38;5019418;28;20077;-51
2021/12/13 04:02:56;;;;;;;4.03;3.63;;;;;;;5.10;100.00;97334.53;5021593;28;20073;-48
2021/12/13 04:05:25;;;;;;;;;;;;;;;5.17;100.00;97346.31;5021640;28;20073;-49
2021/12/13 04:07:55;;;;;;;3.50;3.20;;;;;;;5.02;100.00;97334.09;5020963;28;19971;-46
2021/12/13 04:10:26;;;;;;;;;;;;;;;5.05;100.00;97342.59;5022044;28;20078;-47
2021/12/13 04:12:58;;;;;;;3.83;3.42;;;;;;;5.32;100.00;97342.78;5025803;28;20519;-50
2021/12/13 04:15:34;;;;;;;3.60;3.30;;;;;;;4.96;100.00;97348.38;5018288;28;20070;-45
2021/12/13 04:18:25;;;;;;;4.80;3.80;;;;;;;5.23;100.00;97346.78;5021404;28;20069;-46
2021/12/13 04:20:58;;;;;;;3.78;3.47;;;;;;;4.94;100.00;97342.41;5025407;28;20075;-49
2021/12/13 04:23:27;;;;;;;4.35;3.95;;;;;;;5.29;100.00;97342.94;5021418;28;20073;-47
2021/12/13 04:26:01;;;;;;;3.83;3.40;;;;;;;5.03;100.00;97351.50;5024246;28;20058;-43
2021/12/13 04:28:35;;;;;;;4.47;3.72;;;;;;;4.94;100.00;97348.47;5020941;28;20089;-45
2021/12/13 04:31:07;;;;;;;4.40;4.00;;;;;;;5.13;100.00;97343.03;5023515;28;20558;-50
2021/12/13 04:33:37;;;;;;;4.22;3.72;;;;;;;5.12;100.00;97353.56;5024092;28;20486;-45
2021/12/13 04:36:10;;;;;;;4.10;3.80;;;;;;;5.07;100.00;97355.59;5023149;28;20391;-46
2021/12/13 04:38:48;;;;;;;3.92;3.63;;;;;;;4.85;100.00;97354.22;5019063;28;20061;-49
2021/12/13 04:41:24;;;;;;;4.03;3.72;;;;;;;4.91;100.00;97353.84;5017989;28;20062;-49
2021/12/13 04:43:56;;;;;;;4.47;4.07;;;;;;;5.07;100.00;97359.06;5027272;28;20061;-45
2021/12/13 04:46:27;;;;;;;4.65;4.25;;;;;;;4.94;100.00;97364.13;5021265;28;20077;-48
2021/12/13 04:49:00;;;;;;;4.10;3.70;;;;;;;4.98;100.00;97363.03;5028674;28;20179;-44
2021/12/13 04:51:35;;;;;;;4.43;4.03;;;;;;;4.99;100.00;97356.91;5022424;28;20068;-45
2021/12/13 04:54:06;;;;;;;4.30;3.90;;;;;;;4.98;100.00;97362.19;5023810;28;20099;-43
2021/12/13 04:56:36;;;;;;;4.10;3.70;;;;;;;5.06;100.00;97361.75;5020024;28;20072;-44
2021/12/13 04:59:07;;;;;;;4.18;3.78;;;;;;;4.91;100.00;97356.47;5023184;28;20072;-44
2021/12/13 05:01:37;;;;;;;3.95;3.65;;;;;;;5.16;100.00;97358.53;5021262;28;20051;-43
2021/12/13 05:04:07;;;;;;;4.50;4.10;;;;;;;5.20;100.00;97361.81;5025123;28;20084;-47
2021/12/13 05:06:38;;;;;;;3.92;3.63;;;;;;;5.16;100.00;97362.91;5019447;28;20471;-43
2021/12/13 05:09:10;;;;;;;4.57;4.18;;;;;;;5.35;100.00;97357.44;5026285;28;20073;-45
2021/12/13 05:11:43;;;;;;;4.10;3.70;;;;;;;5.11;100.00;97364.94;5017517;28;20521;-44
2021/12/13 05:14:13;;;;;;;4.40;4.00;;;;;;;5.14;100.00;97364.78;5017212;28;20046;-48
2021/12/13 05:16:46;;;;;;;4.60;4.10;;;;;;;5.17;100.00;97369.84;5023745;28;20143;-44
2021/12/13 05:19:17;;;;;;;4.70;4.22;;;;;;;5.42;100.00;97370.06;5025766;28;20084;-44
2021/12/13 05:21:48;;;;;;;4.78;4.00;;;;;;;5.18;100.00;97376.75;5022029;28;20053;-43
2021/12/13 05:24:19;;;;;;;4.18;3.83;;;;;;;5.29;100.00;97379.56;5018616;28;20073;-47
2021/12/13 05:26:54;;;;;;;4.40;4.00;;;;;;;5.37;100.00;97374.75;5023308;28;20168;-47
2021/12/13 05:29:29;;;;;;;4.55;4.15;;;;;;;5.26;100.00;97374.50;5019828;28;20490;-50
2021/12/13 05:32:03;;;;;;;4.68;4.25;;;;;;;5.21;100.00;97374.78;5022568;28;20072;-49
2021/12/13 05:34:34;;;;;;;4.97;4.47;;;;;;;5.56;100.00;97377.09;5027668;28;20093;-47
2021/12/13 05:37:06;;;;;;;6.10;3.90;;;;;;;5.05;100.00;97379.22;5025658;28;20084;-46
2021/12/13 05:39:36;;;;;;;5.38;4.53;;;;;;;5.44;100.00;97370.00;5029330;28;20871;-49
2021/12/13 05:42:10;;;;;;;4.18;3.72;;;;;;;5.19;100.00;97378.41;5017281;28;20061;-45
2021/12/13 05:44:44;;;;;;;6.40;4.75;;;;;;;5.58;100.00;97377.03;5022830;28;20127;-51
2021/12/13 05:47:21;;;;;;;6.18;4.35;;;;;;;5.27;100.00;97370.97;5022845;28;20069;-45
2021/12/13 05:49:51;;;;;;;5.50;4.13;;;;;;;5.18;100.00;97376.75;5026074;28;20489;-48
2021/12/13 05:52:24;;;;;;;4.93;4.43;;;;;;;5.33;100.00;97370.59;5022865;28;20074;-48
2021/12/13 05:54:57;;;;;;;5.43;4.93;;;;;;;5.42;100.00;97379.69;5025107;28;20413;-49
2021/12/13 05:57:30;;;;;;;5.68;4.57;;;;;;;5.38;100.00;97379.03;5024924;28;20077;-44
2021/12/13 06:00:02;;;;;;;5.40;4.90;;;;;;;5.31;100.00;97380.31;5024421;28;20631;-50
2021/12/13 06:03:00;;;;;;;5.40;4.90;;;;;;;5.58;100.00;97377.88;5023784;28;20065;-48
2021/12/13 06:05:31;;;;;;;5.43;4.93;;;;;;;5.54;100.00;97381.59;5024813;28;20084;-49
2021/12/13 06:08:01;;;;;;;6.40;5.55;;;;;;;5.43;100.00;97384.81;5025941;28;20052;-49
2021/12/13 06:10:37;;;;;;;6.35;5.55;;;;;;;5.69;100.00;97388.53;5019727;28;20084;-47
2021/12/13 06:13:08;;;;;;;8.75;5.70;;;;;;;5.52;100.00;97386.06;5024212;28;20080;-44
2021/12/13 06:15:39;;;;;;;6.47;5.85;;;;;;;5.53;100.00;97392.16;5017423;28;20077;-45
2021/12/13 06:18:17;;;;;;;6.40;5.80;;;;;;;5.57;100.00;97391.03;5026422;28;20095;-50
2021/12/13 06:20:54;;;;;;;7.75;6.05;;;;;;;5.39;100.00;97388.56;5023449;28;20081;-47
2021/12/13 06:23:25;;;;;;;7.90;5.35;;;;;;;5.46;100.00;97402.13;5018236;28;20070;-45
2021/12/13 06:25:57;;;;;;;7.45;5.88;;;;;;;5.58;100.00;97395.34;5029013;28;20438;-45
2021/12/13 06:28:29;;;;;;;7.55;6.05;;;;;;;5.59;100.00;97395.25;5030168;28;20081;-44
2021/12/13 06:31:00;;;;;;;7.38;5.65;;;;;;;5.46;100.00;97400.34;5030854;28;20092;-48
2021/12/13 06:33:29;;;;;;;7.18;5.70;;;;;;;5.90;100.00;97404.72;5027905;28;20062;-47
2021/12/13 06:35:58;;;;;;;7.28;6.00;;;;;;;5.87;100.00;97402.28;5024815;28;20484;-45
2021/12/13 06:38:31;;;;;;;7.30;4.65;;;;;;;5.75;100.00;97415.25;5018520;28;20073;-48
2021/12/13 06:41:02;;;;;;;7.13;6.00;;;;;;;5.79;100.00;97411.53;5028626;28;20069;-44
2021/12/13 06:43:35;;;;;;;6.53;5.85;;;;;;;5.83;100.00;97419.13;5023064;28;20080;-43
2021/12/13 06:46:06;;;;;;;7.32;6.47;;;;;;;5.69;100.00;97414.69;5024291;28;20535;-47
2021/12/13 06:48:38;;;;;;;6.97;6.25;;;;;;;5.83;100.00;97420.91;5025954;28;20069;-45
2021/12/13 06:51:09;;;;;;;8.52;6.45;;;;;;;5.96;100.00;97426.28;5022428;28;20069;-47
2021/12/13 06:53:37;;;;;;;7.35;5.97;;;;;;;5.95;100.00;97425.41;5029694;28;20072;-46
2021/12/13 06:56:21;;;;;;;8.95;6.53;;;;;;;6.15;100.00;97426.81;5023261;28;20068;-49
2021/12/13 06:58:53;;;;;;;8.55;6.68;;;;;;;6.14;100.00;97426.00;5024579;28;20604;-45
2021/12/13 07:01:22;;;;;;;7.35;6.63;;;;;;;6.23;100.00;97428.97;5037314;28;20092;-47
2021/12/13 07:03:58;;;;;;;8.43;6.47;;;;;;;6.03;100.00;97433.66;5019847;28;20508;-46
2021/12/13 07:06:28;;;;;;;11.13;6.90;;;;;;;6.21;100.00;97436.94;5020757;28;20726;-47
2021/12/13 07:09:10;;;;;;;8.27;6.55;;;;;;;6.36;100.00;97435.97;5025887;28;20080;-48
2021/12/13 07:11:43;;;;;;;10.18;7.05;;;;;;;6.14;100.00;97448.72;5018159;28;20081;-47
2021/12/13 07:14:14;;;;;;;9.88;7.28;;;;;;;6.16;100.00;97447.69;5020238;28;20076;-50
2021/12/13 07:16:46;;;;;;;7.68;6.65;;;;;;;5.87;100.00;97454.63;5022747;28;20512;-47
2021/12/13 07:19:19;;;;;;;10.75;6.95;;;;;;;6.10;100.00;97460.31;5027073;28;20076;-48
2021/12/13 07:21:54;;;;;;;9.55;7.20;;;;;;;6.04;100.00;97458.06;5028129;28;21562;-48
2021/12/13 07:24:40;;;;;;;8.02;6.60;;;;;;;5.85;100.00;97464.38;5031786;28;20065;-52
2021/12/13 07:27:11;;;;;;;8.65;6.97;;;;;;;5.92;100.00;97473.59;5019183;28;20060;-44
2021/12/13 07:29:44;;;;;;;8.85;7.40;;;;;;;5.80;100.00;97465.56;5027828;28;20467;-52
2021/12/13 07:32:18;;;;;;;12.80;7.85;;;;;;;5.92;100.00;97465.72;5024365;28;20068;-49
2021/12/13 07:35:00;;;;;;;9.63;7.65;;;;;;;6.07;100.00;97470.97;5019928;28;20073;-47
2021/12/13 07:37:46;;;;;;;10.48;7.80;;;;;;;6.29;100.00;97462.66;5019627;28;20069;-47
2021/12/13 07:40:35;;;;;;;10.15;7.93;;;;;;;5.85;100.00;97466.13;5023583;28;20077;-46
2021/12/13 07:43:20;;;;;;;12.30;8.70;;;;;;;6.32;100.00;97470.34;5027252;28;20064;-49
2021/12/13 07:45:56;;;;;;;11.70;7.70;;;;;;;6.01;100.00;97468.72;5021046;28;21528;-48
2021/12/13 07:48:27;;;;;;;10.82;7.78;;;;;;;6.27;100.00;97470.63;5031496;28;20061;-51
2021/12/13 07:51:12;;;;;;;11.35;8.20;;;;;;;6.31;100.00;97476.50;5018580;28;20096;-48
2021/12/13 07:53:46;;;;;;;11.00;8.35;;;;;;;6.24;100.00;97472.59;5019937;28;20076;-47
2021/12/13 07:56:21;;;;;;;10.20;7.68;;;;;;;6.39;100.00;97474.25;5024628;28;20598;-53
2021/12/13 07:58:52;;;;;;;10.93;8.48;;;;;;;6.50;100.00;97484.09;5018897;28;20069;-44
2021/12/13 08:01:25;;;;;;;11.88;8.80;;;;;;;6.36;100.00;97483.13;5021161;28;20095;-52
2021/12/13 08:03:58;;;;;;;14.23;8.95;;;;;;;6.76;100.00;97475.44;5017806;28;20069;-50
2021/12/13 08:06:29;;;;;;;14.25;9.00;;;;;;;6.34;100.00;97487.66;5022356;28;20081;-49
2021/12/13 08:08:59;;;;;;;13.60;8.88;;;;;;;6.72;100.00;97481.84;5021886;28;20090;-51
2021/12/13 08:11:43;;;;;;;13.48;8.90;;;;;;;6.60;100.00;97491.28;5028453;28;20076;-48
2021/12/13 08:14:12;;;;;;;14.18;9.70;;;;;;;6.67;100.00;97478.63;5025782;28;20071;-46
2021/12/13 08:16:44;;;;;;;13.32;9.02;;;;;;;6.99;100.00;97483.66;5019948;28;20510;-50
2021/12/13 08:19:19;;;;;;;13.43;9.30;;;;;;;6.89;100.00;97481.63;5019040;28;20157;-46
2021/12/13 08:21:51;;;;;;;15.05;9.68;;;;;;;7.35;100.00;97486.53;5017098;28;20504;-49
2021/12/13 08:24:25;;;;;;;15.18;9.75;;;;;;;7.29;100.00;97483.47;5019886;28;20552;-49
2021/12/13 08:26:58;;;;;;;14.23;9.27;;;;;;;7.10;100.00;97486.44;5026213;28;20084;-49
2021/12/13 08:29:29;;;;;;;12.70;9.23;;;;;;;7.29;100.00;97486.09;5027283;28;20088;-46
2021/12/13 08:32:02;;;;;;;11.57;8.70;;;;;;;6.75;100.00;97483.44;5019770;28;20064;-48
2021/12/13 08:34:32;;;;;;;11.43;8.48;;;;;;;6.78;100.00;97477.97;5025109;28;20073;-51
2021/12/13 08:37:11;;;;;;;12.98;9.10;;;;;;;6.90;100.00;97477.22;5028589;28;20088;-47
2021/12/13 08:39:40;;;;;;;11.70;8.40;;;;;;;6.59;100.00;97489.59;5028895;28;20073;-45
2021/12/13 08:42:11;;;;;;;9.95;8.00;;;;;;;6.60;100.00;97495.69;5031904;28;20522;-45
2021/12/13 08:44:43;;;;;;;12.05;8.63;;;;;;;6.80;100.00;97483.97;5023380;28;20057;-48
2021/12/13 08:47:16;;;;;;;13.40;8.50;;;;;;;6.60;100.00;97495.69;5022067;28;20068;-50
2021/12/13 08:49:47;;;;;;;12.15;7.70;;;;;;;6.84;100.00;97493.31;5025160;28;20073;-48
2021/12/13 08:52:23;;;;;;;11.77;8.70;;;;;;;7.16;100.00;97498.31;5023854;28;20085;-46
2021/12/13 08:54:57;;;;;;;12.60;8.27;;;;;;;7.13;100.00;97499.38;5016588;28;20482;-43
2021/12/13 08:57:45;;;;;;;11.95;8.07;;;;;;;6.78;100.00;97512.03;5020792;28;20084;-47
2021/12/13 09:00:25;;;;;;;12.45;8.27;;;;;;;7.34;100.00;97500.59;5025377;28;20044;-46
2021/12/13 09:02:58;;;;;;;12.48;8.45;;;;;;;7.36;100.00;97503.97;5022637;28;20073;-54
2021/12/13 09:05:31;;;;;;;12.50;8.38;;;;;;;7.08;100.00;97501.41;5030604;28;20068;-46
2021/12/13 09:08:01;;;;;;;12.73;8.95;;;;;;;7.26;100.00;97502.03;5018613;28;20057;-47
2021/12/13 09:10:43;;;;;;;12.93;7.90;;;;;;;7.18;100.00;97501.69;5022219;28;20077;-47
2021/12/13 09:13:13;;;;;;;13.15;8.35;;;;;;;7.37;100.00;97500.41;5029643;28;20095;-46
2021/12/13 09:15:43;;;;;;;9.67;8.07;;;;;;;7.69;100.00;97497.47;5022796;28;20543;-47
2021/12/13 09:18:20;;;;;;;10.35;7.80;;;;;;;7.85;100.00;97490.25;5016405;28;20065;-48
2021/12/13 09:20:52;;;;;;;13.57;8.18;;;;;;;7.93;100.00;97495.00;5017042;28;20074;-44
2021/12/13 09:23:23;;;;;;;9.35;7.53;;;;;;;7.66;100.00;97500.28;5018795;28;20645;-48
2021/12/13 09:25:52;;;;;;;;;;;;;;;7.71;100.00;97503.47;5022469;28;20154;-48
2021/12/13 09:28:23;;;;;;;9.23;6.97;;;;;;;7.84;100.00;97506.97;5032407;28;19956;-48
2021/12/13 09:30:56;;;;;;;10.90;7.55;;;;;;;7.94;100.00;97504.53;5023061;28;20307;-46
2021/12/13 09:33:29;;;;;;;10.05;6.93;;;;;;;7.84;100.00;97506.09;5031847;28;20069;-49
2021/12/13 09:36:00;;;;;;;10.07;7.43;;;;;;;7.78;100.00;97512.63;5020592;28;20078;-52
2021/12/13 09:38:40;;;;;;;9.70;7.30;;;;;;;7.46;100.00;97521.75;5026505;28;20057;-50
2021/12/13 09:41:35;;;;;;;7.97;6.45;;;;;;;7.82;100.00;97510.63;5022764;28;20061;-49
2021/12/13 09:44:20;;;;;;;10.20;6.50;;;;;;;7.94;100.00;97506.34;5014622;28;20067;-45
2021/12/13 09:46:52;;;;;;;10.13;7.32;;;;;;;7.85;100.00;97508.63;5024437;28;20102;-45
2021/12/13 09:49:27;;;;;;;7.38;6.30;;;;;;;8.02;100.00;97506.69;5025134;28;20085;-51
2021/12/13 09:51:59;;;;;;;8.55;6.70;;;;;;;7.96;100.00;97507.09;5031318;28;20260;-46
2021/12/13 09:54:32;;;;;;;9.15;6.47;;;;;;;8.26;100.00;97504.19;5022422;28;20101;-46
2021/12/13 09:57:03;;;;;;;9.65;6.65;;;;;;;8.33;100.00;97506.28;5010757;28;20077;-45
2021/12/13 09:59:36;;;;;;;8.90;6.80;;;;;;;8.29;100.00;97510.06;5004574;28;20077;-47
2021/12/13 10:02:07;;;;;;;8.75;6.57;;;;;;;7.76;100.00;97498.72;5012242;28;20061;-46
2021/12/13 10:04:40;;;;;;;9.10;6.60;;;;;;;8.19;100.00;97501.13;5029929;28;20101;-46
2021/12/13 10:07:11;;;;;;;9.40;6.90;;;;;;;8.51;100.00;97500.72;5021837;28;20084;-45
2021/12/13 10:09:43;;;;;;;9.13;7.60;;;;;;;8.00;100.00;97493.63;5005286;28;20504;-46
2021/12/13 10:12:15;;;;;;;9.32;7.15;;;;;;;8.50;100.00;97497.28;5018154;28;20715;-44
2021/12/13 10:14:47;;;;;;;8.70;7.25;;;;;;;8.76;100.00;97491.97;5027795;28;20065;-46
2021/12/13 10:17:18;;;;;;;8.82;7.03;;;;;;;8.80;100.00;97490.78;5025912;28;20041;-48
2021/12/13 10:19:51;;;;;;;8.85;6.80;;;;;;;8.67;100.00;97487.34;5024912;28;20448;-45
2021/12/13 10:22:24;;;;;;;8.90;7.22;;;;;;;8.65;100.00;97482.22;5026619;28;20194;-47
2021/12/13 10:24:56;;;;;;;8.95;6.50;;;;;;;9.03;100.00;97481.28;5026078;28;20244;-49
2021/12/13 10:27:25;;;;;;;8.38;6.38;;;;;;;8.90;100.00;97480.47;5024036;28;20671;-43
2021/12/13 10:29:57;;;;;;;8.48;6.97;;;;;;;9.32;100.00;97473.91;5024386;28;20491;-46
2021/12/13 10:32:28;;;;;;;7.82;6.50;;;;;;;9.40;100.00;97470.72;5026400;28;20131;-47
2021/12/13 10:35:00;;;;;;;8.27;6.47;;;;;;;9.59;100.00;97470.19;5017798;28;20066;-43
2021/12/13 10:37:32;;;;;;;8.98;6.72;;;;;;;9.67;100.00;97471.31;5006378;28;20085;-42
2021/12/13 10:40:03;;;;;;;8.10;6.43;;;;;;;9.65;100.00;97467.97;5002922;28;20089;-50
2021/12/13 10:42:36;;;;;;;8.68;6.47;;;;;;;9.63;100.00;97463.75;5026926;28;20073;-48
2021/12/13 10:45:08;;;;;;;8.35;6.45;;;;;;;10.30;100.00;97456.06;5021482;28;20044;-42
2021/12/13 10:47:40;;;;;;;7.50;5.85;;;;;;;9.45;100.00;97463.31;5025812;28;20076;-46
2021/12/13 10:50:15;;;;;;;7.30;5.75;;;;;;;8.98;100.00;97462.34;5019391;28;20076;-44
2021/12/13 10:52:48;;;;;;;8.57;5.90;;;;;;;9.61;100.00;97455.97;5019797;28;20084;-42
2021/12/13 10:55:21;;;;;;;7.78;6.07;;;;;;;9.34;100.00;97458.00;4998538;28;20097;-45
2021/12/13 10:57:50;;;;;;;6.45;5.63;;;;;;;9.30;100.00;97456.56;5020207;28;20077;-48
2021/12/13 11:00:24;;;;;;;6.30;5.70;;;;;;;9.65;100.00;97465.31;5022729;28;20046;-45
2021/12/13 11:02:54;;;;;;;6.38;5.70;;;;;;;9.02;100.00;97461.19;5021790;28;20069;-48
2021/12/13 11:05:28;;;;;;;6.72;5.93;;;;;;;9.57;100.00;97451.91;5021805;28;20076;-42
2021/12/13 11:07:59;;;;;;;6.57;5.75;;;;;;;9.56;100.00;97454.63;5018110;28;20517;-49
2021/12/13 11:10:31;;;;;;;6.90;5.38;;;;;;;9.96;100.00;97458.59;5000795;28;20700;-42
2021/12/13 11:13:21;;;;;;;6.20;5.25;;;;;;;10.01;100.00;97452.97;5000512;28;20081;-45
2021/12/13 11:15:54;;;;;;;7.65;5.72;;;;;;;10.27;100.00;97458.09;5008853;28;20556;-46
2021/12/13 11:18:27;;;;;;;6.55;5.82;;;;;;;10.12;100.00;97450.38;5002453;28;20528;-44
2021/12/13 11:21:01;;;;;;;7.40;6.15;;;;;;;9.26;100.00;97451.50;5018969;28;20072;-51
2021/12/13 11:23:30;;;;;;;6.22;5.63;;;;;;;10.06;100.00;97448.19;5029128;28;20061;-48
2021/12/13 11:26:01;;;;;;;6.75;6.03;;;;;;;10.01;100.00;97437.16;5025102;28;20069;-48
2021/12/13 11:28:32;;;;;;;7.68;5.72;;;;;;;10.07;100.00;97438.50;5018682;28;20074;-44
2021/12/13 11:31:01;;;;;;;7.00;5.70;;;;;;;10.43;100.00;97426.94;4997697;28;20085;-50
2021/12/13 11:34:09;;;;;;;7.80;6.20;;;;;;;10.20;100.00;97434.78;5006683;28;20077;-46
2021/12/13 11:37:17;;;;;;;6.95;5.80;;;;;;;9.83;100.00;97435.91;5014811;28;20519;-49
2021/12/13 11:40:26;;;;;;;6.70;5.70;;;;;;;10.22;100.00;97435.53;5021200;28;20457;-45
2021/12/13 11:43:11;;;;;;;6.73;6.03;;;;;;;9.89;100.00;97427.56;4984839;28;20441;-44
2021/12/13 11:46:07;;;;;;;7.05;5.97;;;;;;;9.19;100.00;97429.22;5003196;28;20292;-47
2021/12/13 11:48:51;;;;;;;6.53;5.50;;;;;;;9.37;100.00;97424.41;5022791;28;20516;-47
2021/12/13 11:51:49;;;;;;;7.07;5.85;;;;;;;9.31;100.00;97421.38;5019496;28;20076;-48
2021/12/13 11:54:38;;;;;;;7.00;5.78;;;;;;;9.10;100.00;97427.25;5028860;28;20080;-47
2021/12/13 11:57:35;;;;;;;7.20;6.00;;;;;;;9.65;100.00;97424.97;5027704;28;20053;-43
2021/12/13 12:00:27;;;;;;;6.93;6.13;;;;;;;9.30;100.00;97415.28;5023253;28;20069;-46
2021/12/13 12:03:23;;;;;;;7.22;5.72;;;;;;;9.57;100.00;97416.81;5017730;28;20065;-52
2021/12/13 12:06:31;;;;;;;5.53;5.00;;;;;;;9.38;100.00;97415.53;5025410;28;20647;-51
2021/12/13 12:09:19;;;;;;;6.57;5.07;;;;;;;9.98;100.00;97411.91;5021393;28;20088;-49
2021/12/13 12:12:13;;;;;;;5.88;5.28;;;;;;;9.87;100.00;97406.59;5024195;28;20069;-43